createdAt,value
2019-02-23T00:00:09.357Z,0.90
2019-02-23T00:02:37.993Z,0.97
2019-02-23T00:05:06.616Z,0.79
2019-02-23T00:07:35.232Z,0.89
2019-02-23T00:10:03.876Z,0.95
2019-02-23T00:12:32.516Z,0.87
2019-02-23T00:17:40.078Z,1.02
2019-02-23T00:20:08.687Z,1.08
2019-02-23T00:22:37.316Z,0.98
2019-02-23T00:25:05.939Z,0.88
2019-02-23T00:27:34.560Z,0.89
2019-02-23T00:30:03.179Z,0.40
2019-02-23T00:32:32.138Z,0.59
2019-02-23T00:35:01.130Z,0.80
2019-02-23T00:37:29.779Z,0.84
2019-02-23T00:39:58.407Z,0.75
2019-02-23T00:42:27.375Z,0.73
2019-02-23T00:44:55.988Z,0.75
2019-02-23T00:47:24.619Z,0.70
2019-02-23T00:49:53.243Z,0.74
2019-02-23T00:52:21.887Z,0.74
2019-02-23T00:54:50.497Z,0.68
2019-02-23T00:57:19.136Z,0.11
2019-02-23T00:59:48.060Z,0.09
2019-02-23T01:02:16.709Z,0.29
2019-02-23T01:04:45.333Z,0.36
2019-02-23T01:07:13.991Z,0.33
2019-02-23T01:09:42.625Z,0.11
2019-02-23T01:12:11.258Z,0.38
2019-02-23T01:14:40.166Z,0.17
2019-02-23T01:17:08.800Z,0.05
2019-02-23T01:19:47.291Z,0.22
2019-02-23T01:22:06.041Z,0.24
2019-02-23T01:24:34.672Z,0.40
2019-02-23T01:27:03.299Z,0.38
2019-02-23T01:29:31.940Z,0.50
2019-02-23T01:32:00.558Z,0.39
2019-02-23T01:34:29.192Z,0.25
2019-02-23T01:36:58.144Z,0.12
2019-02-23T01:39:26.775Z,0.26
2019-02-23T01:41:55.687Z,0.32
2019-02-23T01:44:24.316Z,0.32
2019-02-23T01:46:52.935Z,0.19
2019-02-23T01:49:21.939Z,0.27
2019-02-23T01:51:50.546Z,0.39
2019-02-23T01:54:19.172Z,0.46
2019-02-23T01:56:48.100Z,0.50
2019-02-23T01:59:16.737Z,0.34
2019-02-23T02:01:45.380Z,0.29
2019-02-23T02:04:14.002Z,0.18
2019-02-23T02:06:42.623Z,0.26
2019-02-23T02:09:11.281Z,0.33
2019-02-23T02:11:40.210Z,0.23
2019-02-23T02:16:47.388Z,0.20
2019-02-23T02:19:16.030Z,-0.18
2019-02-23T02:21:44.655Z,-0.26
2019-02-23T02:24:13.289Z,-0.01
2019-02-23T02:26:42.242Z,0.19
2019-02-23T02:29:11.088Z,0.18
2019-02-23T02:31:40.023Z,0.14
2019-02-23T02:34:11.345Z,-0.08
2019-02-23T02:36:39.979Z,0.02
2019-02-23T02:39:08.650Z,0.11
2019-02-23T02:41:37.294Z,0.08
2019-02-23T02:44:05.910Z,-0.04
2019-02-23T02:46:34.540Z,-0.41
2019-02-23T02:49:03.186Z,-0.94
2019-02-23T02:51:32.164Z,-1.14
2019-02-23T02:54:00.806Z,-1.15
2019-02-23T02:56:29.431Z,-0.80
2019-02-23T02:58:58.410Z,-0.51
2019-02-23T03:01:27.046Z,-0.41
2019-02-23T03:03:55.675Z,-0.30
2019-02-23T03:06:24.299Z,-0.36
2019-02-23T03:08:53.237Z,-0.66
2019-02-23T03:11:21.866Z,-0.42
2019-02-23T03:13:50.605Z,-0.37
2019-02-23T03:16:19.218Z,-0.63
2019-02-23T03:18:48.215Z,-0.65
2019-02-23T03:21:17.181Z,-0.83
2019-02-23T03:23:45.814Z,-0.72
2019-02-23T03:26:14.424Z,-0.50
2019-02-23T03:28:43.057Z,-0.45
2019-02-23T03:31:11.690Z,-0.92
2019-02-23T03:33:40.340Z,-0.68
2019-02-23T03:36:08.951Z,-0.55
2019-02-23T03:38:37.596Z,-0.46
2019-02-23T03:41:06.217Z,-0.53
2019-02-23T03:43:34.867Z,-0.54
2019-02-23T03:46:03.497Z,-0.49
2019-02-23T03:48:32.425Z,-0.50
2019-02-23T03:51:01.045Z,-0.54
2019-02-23T03:53:29.975Z,-0.54
2019-02-23T03:55:58.609Z,-0.66
2019-02-23T03:58:27.540Z,-0.82
2019-02-23T04:00:56.172Z,-0.84
2019-02-23T04:03:24.815Z,-0.80
2019-02-23T04:05:53.426Z,-0.82
2019-02-23T04:08:22.367Z,-0.94
2019-02-23T04:10:51.023Z,-0.90
2019-02-23T04:13:19.650Z,-0.97
2019-02-23T04:15:48.559Z,-1.23
2019-02-23T04:18:17.522Z,-1.08
2019-02-23T04:20:46.188Z,-1.10
2019-02-23T04:23:14.833Z,-1.09
2019-02-23T04:25:43.458Z,-1.06
2019-02-23T04:28:12.099Z,-1.03
2019-02-23T04:30:40.751Z,-0.97
2019-02-23T04:33:09.375Z,-0.96
2019-02-23T04:35:38.312Z,-0.95
2019-02-23T04:38:07.306Z,-0.99
2019-02-23T04:40:36.297Z,-0.99
2019-02-23T04:43:05.286Z,-1.16
2019-02-23T04:45:34.272Z,-1.21
2019-02-23T04:48:02.910Z,-1.23
2019-02-23T04:50:31.542Z,-1.20
2019-02-23T04:53:00.531Z,-1.22
2019-02-23T04:55:29.164Z,-1.22
2019-02-23T04:57:57.787Z,-1.75
2019-02-23T05:00:26.791Z,-1.57
2019-02-23T05:02:55.792Z,-1.38
2019-02-23T05:05:24.765Z,-1.29
2019-02-23T05:07:53.385Z,-1.28
2019-02-23T05:13:00.958Z,-1.34
2019-02-23T05:15:29.593Z,-1.36
2019-02-23T05:17:58.534Z,-1.32
2019-02-23T05:20:27.164Z,-1.40
2019-02-23T05:22:56.103Z,-1.50
2019-02-23T05:25:24.753Z,-1.84
2019-02-23T05:27:53.374Z,-1.56
2019-02-23T05:33:00.573Z,-1.50
2019-02-23T05:35:29.560Z,-1.50
2019-02-23T05:37:58.184Z,-1.55
2019-02-23T05:40:26.806Z,-1.54
2019-02-23T05:43:00.953Z,-1.64
2019-02-23T05:45:24.053Z,-1.60
2019-02-23T05:47:52.659Z,-1.96
2019-02-23T05:53:02.176Z,-1.67
2019-02-23T05:55:30.805Z,-1.77
2019-02-23T05:57:59.479Z,-1.65
2019-02-23T06:00:28.395Z,-1.65
2019-02-23T06:02:57.578Z,-1.67
2019-02-23T06:05:26.554Z,-1.68
2019-02-23T06:07:55.176Z,-1.65
2019-02-23T06:10:24.169Z,-1.68
2019-02-23T06:12:53.132Z,-1.71
2019-02-23T06:15:22.119Z,-1.64
2019-02-23T06:17:51.113Z,-1.66
2019-02-23T06:20:20.001Z,-1.66
2019-02-23T06:22:48.629Z,-1.65
2019-02-23T06:25:17.406Z,-1.66
2019-02-23T06:27:46.023Z,-1.61
2019-02-23T06:32:53.220Z,-1.77
2019-02-23T06:38:00.839Z,-1.83
2019-02-23T06:40:29.750Z,-1.69
2019-02-23T06:42:58.733Z,-1.67
2019-02-23T06:45:27.370Z,-1.66
2019-02-23T06:47:56.311Z,-2.10
2019-02-23T06:50:24.945Z,-1.80
2019-02-23T06:52:53.556Z,-1.67
2019-02-23T06:58:00.741Z,-1.73
2019-02-23T07:00:29.666Z,-1.63
2019-02-23T07:02:58.277Z,-1.61
2019-02-23T07:08:05.744Z,-1.48
2019-02-23T07:10:34.374Z,-1.57
2019-02-23T07:13:02.993Z,-1.50
2019-02-23T07:18:06.619Z,-1.51
2019-02-23T07:20:43.699Z,-1.51
2019-02-23T07:23:03.882Z,-1.49
2019-02-23T07:28:11.059Z,-1.42
2019-02-23T07:30:39.978Z,-1.38
2019-02-23T07:33:08.969Z,-1.31
2019-02-23T07:35:37.961Z,-1.35
2019-02-23T07:38:06.577Z,-1.26
2019-02-23T07:40:35.206Z,-1.25
2019-02-23T07:43:04.118Z,-1.17
2019-02-23T07:45:32.767Z,-1.15
2019-02-23T07:48:01.388Z,-1.34
2019-02-23T07:50:30.024Z,-1.61
2019-02-23T07:52:58.660Z,-1.62
2019-02-23T07:55:27.294Z,-1.34
2019-02-23T07:57:55.888Z,-1.24
2019-02-23T08:00:24.528Z,-1.33
2019-02-23T08:02:53.158Z,-1.17
2019-02-23T08:08:00.348Z,-0.92
2019-02-23T08:10:28.985Z,-0.96
2019-02-23T08:12:57.940Z,-0.86
2019-02-23T08:15:26.934Z,-0.77
2019-02-23T08:17:55.550Z,-0.92
2019-02-23T08:20:24.159Z,-0.90
2019-02-23T08:22:53.109Z,-0.74
2019-02-23T08:28:00.653Z,-0.70
2019-02-23T08:30:29.592Z,-0.57
2019-02-23T08:32:58.495Z,-0.60
2019-02-23T08:35:27.115Z,-0.54
2019-02-23T08:37:56.048Z,-0.38
2019-02-23T08:40:24.679Z,-0.26
2019-02-23T08:42:53.316Z,-0.20
2019-02-23T08:48:00.845Z,-0.19
2019-02-23T08:50:29.438Z,-0.21
2019-02-23T08:52:58.393Z,-0.06
2019-02-23T08:55:27.040Z,0.02
2019-02-23T08:57:55.946Z,0.04
2019-02-23T09:00:24.581Z,0.13
2019-02-23T09:02:53.212Z,0.26
2019-02-23T09:05:21.845Z,0.47
2019-02-23T09:07:50.468Z,0.50
2019-02-23T09:12:57.648Z,0.83
2019-02-23T09:15:26.578Z,0.73
2019-02-23T09:17:55.220Z,0.99
2019-02-23T09:20:29.015Z,1.43
2019-02-23T09:22:59.722Z,1.52
2019-02-23T09:28:00.346Z,1.68
2019-02-23T09:30:29.001Z,1.65
2019-02-23T09:32:57.613Z,1.70
2019-02-23T09:35:26.238Z,1.77
2019-02-23T09:37:54.867Z,1.75
2019-02-23T09:40:23.770Z,1.93
2019-02-23T09:42:52.411Z,2.18
2019-02-23T09:47:59.577Z,2.35
2019-02-23T09:50:28.185Z,2.38
2019-02-23T09:52:56.829Z,2.49
2019-02-23T09:55:25.449Z,2.59
2019-02-23T09:57:54.099Z,2.63
2019-02-23T10:03:01.623Z,2.77
2019-02-23T10:05:30.576Z,2.76
2019-02-23T10:07:59.208Z,2.89
2019-02-23T10:10:28.145Z,2.97
2019-02-23T10:12:57.143Z,3.11
2019-02-23T10:15:25.759Z,3.35
2019-02-23T10:17:54.699Z,3.38
2019-02-23T10:20:23.605Z,3.43
2019-02-23T10:22:52.214Z,3.72
2019-02-23T10:27:59.707Z,3.61
2019-02-23T10:30:28.325Z,3.71
2019-02-23T10:32:57.039Z,3.85
2019-02-23T10:35:25.585Z,4.00
2019-02-23T10:37:54.525Z,4.21
2019-02-23T10:40:23.147Z,4.16
2019-02-23T10:42:51.792Z,4.24
2019-02-23T10:47:59.339Z,4.48
2019-02-23T10:50:27.961Z,4.59
2019-02-23T10:52:56.597Z,4.66
2019-02-23T10:55:25.206Z,4.85
2019-02-23T10:57:53.832Z,4.87
2019-02-23T11:03:01.028Z,5.19
2019-02-23T11:05:29.660Z,5.29
2019-02-23T11:07:58.295Z,5.42
2019-02-23T11:10:26.924Z,5.40
2019-02-23T11:12:55.894Z,5.55
2019-02-23T11:15:24.526Z,5.58
2019-02-23T11:17:53.145Z,5.62
2019-02-23T11:23:00.588Z,5.68
2019-02-23T11:25:29.205Z,5.77
2019-02-23T11:27:57.832Z,5.80
2019-02-23T11:30:26.457Z,5.71
2019-02-23T11:32:55.093Z,5.86
2019-02-23T11:35:23.703Z,5.83
2019-02-23T11:37:52.347Z,5.91
2019-02-23T11:42:59.880Z,5.98
2019-02-23T11:45:30.913Z,6.07
2019-02-23T11:47:57.151Z,6.07
2019-02-23T11:50:25.787Z,6.14
2019-02-23T11:52:54.444Z,6.14
2019-02-23T11:58:01.637Z,6.17
2019-02-23T12:00:30.276Z,6.25
2019-02-23T12:05:37.720Z,6.37
2019-02-23T12:08:06.352Z,6.51
2019-02-23T12:13:13.845Z,6.74
2019-02-23T12:15:42.463Z,6.59
2019-02-23T12:18:11.169Z,6.56
2019-02-23T12:20:39.801Z,6.74
2019-02-23T12:23:08.797Z,6.88
2019-02-23T12:25:37.445Z,6.88
2019-02-23T12:28:06.184Z,6.99
2019-02-23T12:30:35.141Z,6.99
2019-02-23T12:33:04.125Z,7.11
2019-02-23T12:35:32.767Z,6.96
2019-02-23T12:38:01.397Z,6.99
2019-02-23T12:40:30.021Z,7.00
2019-02-23T12:42:58.688Z,6.91
2019-02-23T12:45:28.488Z,6.98
2019-02-23T12:47:56.013Z,7.09
2019-02-23T12:50:24.616Z,7.09
2019-02-23T12:52:53.246Z,7.06
2019-02-23T12:58:00.450Z,7.06
2019-02-23T13:00:29.080Z,7.04
2019-02-23T13:02:57.719Z,7.01
2019-02-23T13:05:26.343Z,7.01
2019-02-23T13:07:54.981Z,7.12
2019-02-23T13:10:23.620Z,7.04
2019-02-23T13:13:10.583Z,7.01
2019-02-23T13:18:36.050Z,7.11
2019-02-23T13:21:07.807Z,7.07
2019-02-23T13:23:58.025Z,7.11
2019-02-23T13:26:45.049Z,7.10
2019-02-23T13:29:25.829Z,7.12
2019-02-23T13:32:22.199Z,7.06
2019-02-23T13:38:15.342Z,7.00
2019-02-23T13:40:56.244Z,7.10
2019-02-23T13:46:15.635Z,7.18
2019-02-23T13:49:08.896Z,7.07
2019-02-23T13:55:07.760Z,7.39
2019-02-23T14:00:38.857Z,7.34
2019-02-23T14:03:19.778Z,7.44
2019-02-23T14:09:06.919Z,7.18
2019-02-23T14:17:41.628Z,7.13
2019-02-23T14:20:16.026Z,7.16
2019-02-23T14:22:47.794Z,7.05
2019-02-23T14:28:20.395Z,7.02
2019-02-23T14:30:51.990Z,7.06
2019-02-23T14:33:51.464Z,7.08
2019-02-23T14:36:22.789Z,7.04
2019-02-23T14:39:00.270Z,7.13
2019-02-23T14:41:47.810Z,7.15
2019-02-23T14:44:38.022Z,7.02
2019-02-23T14:50:03.824Z,6.73
2019-02-23T14:52:51.076Z,6.74
2019-02-23T14:55:23.067Z,6.67
2019-02-23T14:58:16.136Z,6.64
2019-02-23T15:01:06.263Z,6.62
2019-02-23T15:04:12.408Z,6.49
2019-02-23T15:06:50.233Z,6.43
2019-02-23T15:09:44.199Z,6.47
2019-02-23T15:12:12.852Z,6.35
2019-02-23T15:15:07.169Z,6.35
2019-02-23T15:17:45.270Z,6.27
2019-02-23T15:23:19.553Z,6.20
2019-02-23T15:26:10.154Z,6.21
2019-02-23T15:28:48.122Z,6.17
2019-02-23T15:37:29.523Z,5.96
2019-02-23T15:40:17.040Z,5.97
2019-02-23T15:42:55.075Z,5.95
2019-02-23T15:48:14.264Z,5.77
2019-02-23T15:50:43.274Z,5.74
2019-02-23T15:53:11.859Z,5.78
2019-02-23T15:55:40.487Z,5.72
2019-02-23T15:58:09.472Z,5.73
2019-02-23T16:00:38.137Z,5.76
2019-02-23T16:03:06.767Z,5.76
2019-02-23T16:05:35.414Z,5.62
2019-02-23T16:08:04.419Z,5.42
2019-02-23T16:10:33.069Z,5.28
2019-02-23T16:15:40.258Z,5.18
2019-02-23T16:18:09.188Z,5.18
2019-02-23T16:20:38.175Z,5.12
2019-02-23T16:23:06.814Z,5.04
2019-02-23T16:25:39.307Z,5.04
2019-02-23T16:28:04.210Z,4.88
2019-02-23T16:30:33.315Z,4.88
2019-02-23T16:33:01.942Z,4.79
2019-02-23T16:35:30.565Z,4.68
2019-02-23T16:37:59.197Z,4.76
2019-02-23T16:40:28.174Z,4.75
2019-02-23T16:42:56.808Z,4.62
2019-02-23T16:45:25.442Z,4.50
2019-02-23T16:47:54.082Z,4.47
2019-02-23T16:50:22.739Z,4.38
2019-02-23T16:52:51.358Z,4.21
2019-02-23T16:57:58.846Z,4.06
2019-02-23T17:00:27.776Z,3.93
2019-02-23T17:02:56.758Z,3.83
2019-02-23T17:05:25.398Z,3.78
2019-02-23T17:07:54.026Z,3.67
2019-02-23T17:13:01.581Z,3.41
2019-02-23T17:15:30.156Z,3.41
2019-02-23T17:17:58.896Z,3.36
2019-02-23T17:20:27.685Z,3.37
2019-02-23T17:22:56.298Z,3.34
2019-02-23T17:25:24.925Z,3.37
2019-02-23T17:27:53.547Z,3.34
2019-02-23T17:30:22.180Z,3.28
2019-02-23T17:32:51.106Z,3.22
2019-02-23T17:35:19.717Z,3.10
2019-02-23T17:37:48.709Z,3.03
2019-02-23T17:40:17.331Z,3.02
2019-02-23T17:42:45.980Z,2.89
2019-02-23T17:45:14.936Z,2.89
2019-02-23T17:47:43.929Z,2.75
2019-02-23T17:50:12.921Z,2.49
2019-02-23T17:52:41.913Z,2.62
2019-02-23T17:55:10.637Z,2.69
2019-02-23T17:57:39.272Z,2.86
2019-02-23T18:00:07.919Z,2.69
2019-02-23T18:02:36.559Z,2.69
2019-02-23T18:05:05.190Z,2.69
2019-02-23T18:07:34.117Z,2.65
2019-02-23T18:10:03.115Z,2.63
2019-02-23T18:15:10.613Z,2.48
2019-02-23T18:17:39.351Z,2.49
2019-02-23T18:20:10.991Z,2.49
2019-02-23T18:22:39.948Z,2.45
2019-02-23T18:25:08.575Z,2.37
2019-02-23T18:27:37.520Z,2.32
2019-02-23T18:30:14.200Z,2.32
2019-02-23T18:32:41.057Z,2.27
2019-02-23T18:35:10.022Z,2.23
2019-02-23T18:37:39.011Z,2.17
2019-02-23T18:40:07.632Z,2.19
2019-02-23T18:42:36.316Z,2.08
2019-02-23T18:45:05.261Z,1.95
2019-02-23T18:47:33.995Z,1.85
2019-02-23T18:50:03.043Z,1.88
2019-02-23T18:52:31.678Z,1.99
2019-02-23T18:55:00.621Z,1.92
2019-02-23T18:57:29.355Z,1.84
2019-02-23T18:59:58.295Z,1.81
2019-02-23T19:02:27.282Z,1.74
2019-02-23T19:04:55.896Z,1.75
2019-02-23T19:07:24.600Z,1.80
2019-02-23T19:09:53.217Z,1.82
2019-02-23T19:12:22.122Z,1.71
2019-02-23T19:14:51.112Z,1.75
2019-02-23T19:17:20.103Z,1.76
2019-02-23T19:19:48.732Z,1.72
2019-02-23T19:22:17.371Z,1.62
2019-02-23T19:24:45.981Z,1.61
2019-02-23T19:27:14.633Z,1.61
2019-02-23T19:29:43.524Z,1.59
2019-02-23T19:32:12.152Z,1.54
2019-02-23T19:34:40.778Z,1.59
2019-02-23T19:37:09.776Z,1.61
2019-02-23T19:39:38.770Z,1.64
2019-02-23T19:42:07.764Z,1.63
2019-02-23T19:44:36.789Z,1.63
2019-02-23T19:47:05.745Z,1.63
2019-02-23T19:49:34.737Z,1.57
2019-02-23T19:52:03.402Z,1.52
2019-02-23T19:54:32.015Z,1.55
2019-02-23T19:57:00.995Z,1.51
2019-02-23T20:02:08.189Z,1.45
2019-02-23T20:04:37.086Z,1.43
2019-02-23T20:07:05.717Z,1.39
2019-02-23T20:09:34.342Z,1.38
2019-02-23T20:12:02.968Z,1.30
2019-02-23T20:14:31.918Z,1.29
2019-02-23T20:17:00.539Z,1.30
2019-02-23T20:19:29.244Z,1.28
2019-02-23T20:21:58.175Z,1.25
2019-02-23T20:24:26.790Z,1.21
2019-02-23T20:26:55.971Z,1.18
2019-02-23T20:29:24.382Z,1.20
2019-02-23T20:31:53.446Z,1.13
2019-02-23T20:34:22.080Z,1.16
2019-02-23T20:36:50.742Z,1.15
2019-02-23T20:39:19.677Z,1.11
2019-02-23T20:41:48.319Z,1.11
2019-02-23T20:44:16.945Z,1.01
2019-02-23T20:46:45.571Z,0.98
2019-02-23T20:49:14.460Z,1.01
2019-02-23T20:51:43.087Z,0.88
2019-02-23T20:54:11.987Z,0.95
2019-02-23T20:56:40.624Z,0.90
2019-02-23T20:59:09.557Z,0.89
2019-02-23T21:01:38.172Z,0.89
2019-02-23T21:04:07.135Z,0.88
2019-02-23T21:06:35.769Z,0.90
2019-02-23T21:09:04.397Z,0.82
2019-02-23T21:11:33.030Z,0.77
2019-02-23T21:14:01.660Z,0.76
2019-02-23T21:16:30.294Z,0.75
2019-02-23T21:18:58.927Z,0.75
2019-02-23T21:21:27.562Z,0.76
2019-02-23T21:23:56.200Z,0.77
2019-02-23T21:26:24.832Z,0.75
2019-02-23T21:28:53.764Z,0.66
2019-02-23T21:31:22.422Z,0.69
2019-02-23T21:33:51.036Z,0.72
2019-02-23T21:36:19.667Z,0.73
2019-02-23T21:38:48.404Z,0.70
2019-02-23T21:41:17.026Z,0.57
2019-02-23T21:43:45.670Z,0.46
2019-02-23T21:46:14.303Z,0.42
2019-02-23T21:48:42.982Z,0.51
2019-02-23T21:51:11.923Z,0.56
2019-02-23T21:53:40.599Z,0.26
2019-02-23T21:56:09.177Z,0.38
2019-02-23T21:58:38.183Z,0.42
2019-02-23T22:01:07.175Z,0.46
2019-02-23T22:03:37.664Z,0.49
2019-02-23T22:06:04.446Z,0.45
2019-02-23T22:08:33.068Z,0.37
2019-02-23T22:11:01.706Z,0.35
2019-02-23T22:13:30.701Z,0.33
2019-02-23T22:15:59.579Z,0.41
2019-02-23T22:18:28.571Z,0.38
2019-02-23T22:20:57.562Z,0.45
2019-02-23T22:23:26.199Z,0.48
2019-02-23T22:25:54.817Z,0.44
2019-02-23T22:28:23.438Z,0.44
2019-02-23T22:30:52.064Z,0.42
2019-02-23T22:33:20.696Z,0.33
2019-02-23T22:35:49.661Z,0.38
2019-02-23T22:38:18.565Z,0.33
2019-02-23T22:40:47.170Z,0.34
2019-02-23T22:43:17.223Z,0.28
2019-02-23T22:45:44.428Z,0.26
2019-02-23T22:48:13.411Z,0.20
2019-02-23T22:50:42.381Z,0.17
2019-02-23T22:53:11.387Z,0.17
2019-02-23T22:55:40.092Z,0.11
2019-02-23T22:58:08.723Z,0.12
2019-02-23T23:00:37.739Z,0.14
2019-02-23T23:03:06.373Z,0.12
2019-02-23T23:05:35.307Z,0.17
2019-02-23T23:08:03.947Z,0.12
2019-02-23T23:10:32.605Z,0.16
2019-02-23T23:13:01.222Z,0.13
2019-02-23T23:15:30.459Z,0.10
2019-02-23T23:17:59.104Z,0.10
2019-02-23T23:20:27.737Z,0.10
2019-02-23T23:22:56.356Z,0.08
2019-02-23T23:25:25.392Z,0.08
2019-02-23T23:27:54.019Z,0.05
2019-02-23T23:30:22.651Z,0.04
2019-02-23T23:32:51.587Z,0.00
2019-02-23T23:37:58.771Z,-0.02
2019-02-23T23:40:27.396Z,-0.05
2019-02-23T23:42:58.335Z,-0.16
2019-02-23T23:45:24.671Z,-0.12
2019-02-23T23:47:53.304Z,-0.11
2019-02-23T23:53:00.484Z,-0.41
2019-02-23T23:55:29.127Z,-0.50
2019-02-23T23:57:58.739Z,-0.35
